Time;durP1;ratioP1;P1;durP2;ratioP2;P2;SDS_P1;SDS_P2;PMS_P1;PMS_P2;Temp;Humidity;BMP_temperature;BMP_pressure;BME280_temperature;BME280_humidity;BME280_pressure;Samples;Min_cycle;Max_cycle;Signal;HPM_P1;HPM_P2
2022/11/07 00:00:38;;;;;;;10.80;3.93;;;;;;;10.28;100.00;100606.53;5017009;28;20041;-86
2022/11/07 00:03:03;;;;;;;9.57;3.70;;;;;;;10.35;100.00;100604.69;5019599;28;20053;-83
2022/11/07 00:05:29;;;;;;;6.63;3.50;;;;;;;10.41;100.00;100603.78;5019702;28;20030;-83
2022/11/07 00:07:54;;;;;;;10.33;4.03;;;;;;;10.44;100.00;100603.38;5019622;28;20389;-85
2022/11/07 00:10:19;;;;;;;9.13;3.73;;;;;;;10.46;100.00;100614.00;4995082;28;20079;-83
2022/11/07 00:12:45;;;;;;;6.67;3.27;;;;;;;10.51;100.00;100616.88;5019596;28;20174;-82
2022/11/07 00:15:10;;;;;;;6.97;3.30;;;;;;;10.51;100.00;100611.44;5020644;28;20088;-84
2022/11/07 00:17:36;;;;;;;12.00;4.10;;;;;;;10.45;100.00;100615.03;5019752;28;20576;-85
2022/11/07 00:20:01;;;;;;;11.67;3.87;;;;;;;10.50;100.00;100617.09;5020358;28;20159;-83
2022/11/07 00:22:26;;;;;;;9.03;3.23;;;;;;;10.57;100.00;100609.78;5019763;28;20095;-82
2022/11/07 00:24:51;;;;;;;9.27;3.80;;;;;;;10.56;100.00;100622.47;5018066;28;20132;-82
2022/11/07 00:27:17;;;;;;;8.20;3.37;;;;;;;10.61;100.00;100624.53;5019898;28;20095;-88
2022/11/07 00:29:42;;;;;;;6.67;3.33;;;;;;;10.56;100.00;100616.22;5020527;28;20028;-84
2022/11/07 00:32:08;;;;;;;10.20;3.90;;;;;;;10.50;100.00;100617.94;5018971;28;20040;-84
2022/11/07 00:34:36;;;;;;;10.13;4.40;;;;;;;10.50;100.00;100617.94;5001968;28;20057;-88
2022/11/07 00:37:01;;;;;;;7.20;3.37;;;;;;;10.56;100.00;100633.31;5019425;28;20075;-82
2022/11/07 00:39:27;;;;;;;8.47;3.57;;;;;;;10.41;100.00;100624.66;5020641;28;20050;-85
2022/11/07 00:41:52;;;;;;;8.43;3.40;;;;;;;10.45;100.00;100617.75;5018948;28;20504;-86
2022/11/07 00:44:18;;;;;;;8.80;3.50;;;;;;;10.39;100.00;100624.88;5019913;28;20112;-86
2022/11/07 00:46:43;;;;;;;8.70;4.20;;;;;;;10.31;100.00;100630.50;5019830;28;20136;-84
2022/11/07 00:49:10;;;;;;;9.53;4.17;;;;;;;10.26;100.00;100617.59;5034306;28;20045;-84
2022/11/07 00:51:35;;;;;;;9.07;3.90;;;;;;;10.19;100.00;100624.09;5033457;28;20073;-84
2022/11/07 00:54:02;;;;;;;10.83;4.70;;;;;;;10.22;100.00;100621.78;5020486;28;20033;-83
2022/11/07 00:56:27;;;;;;;9.60;4.23;;;;;;;10.17;100.00;100623.47;5019377;28;20045;-86
2022/11/07 00:58:57;;;;;;;8.57;4.50;;;;;;;10.12;100.00;100626.84;5019808;28;20785;-85
2022/11/07 01:01:28;;;;;;;10.43;4.17;;;;;;;10.11;100.00;100631.41;5019008;28;20037;-84
2022/11/07 01:06:40;;;;;;;9.50;4.27;;;;;;;10.03;100.00;100636.22;5019291;28;20044;-82
2022/11/07 01:09:13;;;;;;;8.83;4.03;;;;;;;10.06;100.00;100628.53;5018554;28;20520;-84
2022/11/07 01:11:39;;;;;;;10.03;4.23;;;;;;;10.10;100.00;100618.06;5019514;28;20472;-84
2022/11/07 01:14:05;;;;;;;8.37;4.20;;;;;;;10.10;100.00;100623.50;5019145;28;20033;-82
2022/11/07 01:16:34;;;;;;;8.73;3.67;;;;;;;10.11;100.00;100633.28;5018291;28;20033;-84
2022/11/07 01:19:00;;;;;;;10.90;4.07;;;;;;;10.18;100.00;100647.63;5009997;28;20041;-83
2022/11/07 01:21:25;;;;;;;11.20;3.80;;;;;;;10.10;100.00;100646.00;5019231;28;20731;-84
2022/11/07 01:23:50;;;;;;;12.30;4.03;;;;;;;10.14;100.00;100657.22;5017559;28;20036;-81
2022/11/07 01:26:36;;;;;;;10.27;3.87;;;;;;;10.19;100.00;100664.72;5018591;28;20041;-83
2022/11/07 01:29:02;;;;;;;9.03;3.50;;;;;;;10.17;100.00;100662.19;5000528;28;20124;-86
2022/11/07 01:31:30;;;;;;;10.13;3.67;;;;;;;10.23;100.00;100655.13;5018093;28;20025;-81
2022/11/07 01:33:56;;;;;;;9.50;3.30;;;;;;;10.17;100.00;100662.19;5018117;28;20041;-83
2022/11/07 01:36:21;;;;;;;9.10;4.00;;;;;;;10.18;100.00;100663.88;5000713;28;20564;-83
2022/11/07 01:38:47;;;;;;;10.43;4.33;;;;;;;10.09;100.00;100665.13;5019462;28;20041;-83
2022/11/07 01:41:20;;;;;;;12.07;4.37;;;;;;;10.03;100.00;100669.53;5018783;28;20045;-83
2022/11/07 01:43:46;;;;;;;12.20;4.07;;;;;;;10.04;100.00;100673.09;5018956;28;20048;-83
2022/11/07 01:46:13;;;;;;;9.47;4.00;;;;;;;10.10;100.00;100670.38;5018277;28;20025;-83
2022/11/07 01:48:41;;;;;;;10.47;4.00;;;;;;;10.05;100.00;100669.31;5017742;28;20069;-84
2022/11/07 01:51:07;;;;;;;11.30;4.10;;;;;;;10.03;100.00;100666.81;5018001;28;20182;-85
2022/11/07 01:53:34;;;;;;;10.33;3.97;;;;;;;10.07;100.00;100662.66;5019107;28;20206;-82
2022/11/07 01:56:00;;;;;;;10.60;3.87;;;;;;;10.10;100.00;100653.28;5018949;28;20183;-81
2022/11/07 01:58:26;;;;;;;10.47;3.93;;;;;;;10.16;100.00;100647.00;5033964;28;20165;-84
2022/11/07 02:00:51;;;;;;;12.00;4.00;;;;;;;10.22;100.00;100662.38;5018547;28;20041;-82
2022/11/07 02:03:19;;;;;;;7.00;3.57;;;;;;;10.23;100.00;100661.34;5026764;28;20144;-83
2022/11/07 02:05:55;;;;;;;8.20;3.50;;;;;;;10.19;100.00;100660.13;5019283;28;20091;-83
2022/11/07 02:08:22;;;;;;;7.20;3.60;;;;;;;10.21;100.00;100658.00;5001128;28;21030;-82
2022/11/07 02:10:48;;;;;;;7.47;3.40;;;;;;;10.33;100.00;100660.06;5014728;28;20100;-85
2022/11/07 02:13:21;;;;;;;9.87;3.70;;;;;;;10.22;100.00;100664.28;5017288;28;20041;-83
2022/11/07 02:16:02;;;;;;;8.70;3.47;;;;;;;10.42;100.00;100669.66;5019296;28;20033;-81
2022/11/07 02:18:29;;;;;;;10.60;4.33;;;;;;;10.35;100.00;100680.50;5001485;28;20033;-82
2022/11/07 02:21:02;;;;;;;10.60;3.73;;;;;;;10.34;100.00;100675.28;5022261;28;20038;-84
2022/11/07 02:23:37;;;;;;;10.90;3.33;;;;;;;10.42;100.00;100675.88;5021716;28;20041;-81
2022/11/07 02:26:03;;;;;;;10.90;3.57;;;;;;;10.45;100.00;100669.22;5022288;28;20040;-83
2022/11/07 02:28:31;;;;;;;10.93;4.10;;;;;;;10.43;100.00;100669.44;5022721;28;20163;-83
2022/11/07 02:30:56;;;;;;;9.87;3.27;;;;;;;10.50;100.00;100663.97;5022015;28;20037;-84
2022/11/07 02:33:22;;;;;;;8.53;4.07;;;;;;;10.49;100.00;100670.44;5022717;28;20108;-81
2022/11/07 02:35:50;;;;;;;8.70;3.63;;;;;;;10.53;100.00;100668.16;5020857;28;20053;-83
2022/11/07 02:38:19;;;;;;;12.20;3.40;;;;;;;10.50;100.00;100673.97;5037701;28;20037;-81
2022/11/07 02:40:48;;;;;;;11.37;3.70;;;;;;;10.40;100.00;100679.84;5022925;28;20045;-83
2022/11/07 02:43:17;;;;;;;11.30;3.53;;;;;;;10.51;100.00;100676.47;5020495;28;20044;-80
2022/11/07 02:45:45;;;;;;;10.67;3.60;;;;;;;10.53;100.00;100678.97;5022535;28;20172;-82
2022/11/07 02:48:10;;;;;;;12.40;3.97;;;;;;;10.40;100.00;100669.03;5021069;28;20037;-84
2022/11/07 02:50:35;;;;;;;12.07;4.40;;;;;;;10.42;100.00;100656.94;5022216;28;20808;-84
2022/11/07 02:53:01;;;;;;;10.07;4.33;;;;;;;10.41;100.00;100670.69;5021647;28;21412;-82
2022/11/07 02:55:26;;;;;;;9.87;3.57;;;;;;;10.47;100.00;100669.81;5021811;28;20386;-81
2022/11/07 02:57:52;;;;;;;13.13;4.30;;;;;;;10.34;100.00;100657.13;5021654;28;20052;-82
2022/11/07 03:00:17;;;;;;;10.17;3.60;;;;;;;10.34;100.00;100662.56;5022238;28;20169;-83
2022/11/07 03:02:45;;;;;;;13.37;4.10;;;;;;;10.37;100.00;100661.34;5021327;28;20049;-81
2022/11/07 03:05:18;;;;;;;13.47;4.73;;;;;;;10.32;100.00;100642.97;5021098;28;20042;-82
2022/11/07 03:07:45;;;;;;;14.67;5.30;;;;;;;10.39;100.00;100651.09;5021779;28;20096;-81
2022/11/07 03:10:11;;;;;;;12.60;4.30;;;;;;;10.36;100.00;100662.38;5020984;28;20026;-82
2022/11/07 03:12:36;;;;;;;15.63;4.43;;;;;;;10.39;100.00;100653.81;5021390;28;20635;-83
2022/11/07 03:15:04;;;;;;;14.73;4.20;;;;;;;10.34;100.00;100664.44;5036763;28;20767;-82
2022/11/07 03:17:29;;;;;;;13.90;4.27;;;;;;;10.38;100.00;100660.28;4986132;28;20115;-82
2022/11/07 03:19:54;;;;;;;13.30;4.00;;;;;;;10.36;100.00;100665.06;5020747;28;20041;-81
2022/11/07 03:22:20;;;;;;;10.87;3.70;;;;;;;10.40;100.00;100660.91;5021307;28;20030;-80
2022/11/07 03:25:07;;;;;;;14.37;4.20;;;;;;;10.33;100.00;100655.47;5020856;28;20760;-82
2022/11/07 03:27:32;;;;;;;11.30;3.83;;;;;;;10.27;100.00;100659.06;5019924;28;20065;-85
2022/11/07 03:29:58;;;;;;;13.00;4.40;;;;;;;10.25;100.00;100670.09;5036884;28;20269;-83
2022/11/07 03:32:23;;;;;;;14.37;4.30;;;;;;;10.33;100.00;100666.31;5019716;28;20516;-82
2022/11/07 03:34:50;;;;;;;15.97;4.43;;;;;;;10.36;100.00;100660.47;5036300;28;20172;-85
2022/11/07 03:37:15;;;;;;;14.23;5.30;;;;;;;10.24;100.00;100665.72;5020672;28;20041;-83
2022/11/07 03:39:41;;;;;;;15.13;4.57;;;;;;;10.29;100.00;100668.63;5020051;28;20053;-84
2022/11/07 03:42:06;;;;;;;13.73;4.27;;;;;;;10.26;100.00;100671.75;5020740;28;20477;-84
2022/11/07 03:44:31;;;;;;;15.00;4.50;;;;;;;10.31;100.00;100671.94;5020331;28;20803;-82
2022/11/07 03:46:56;;;;;;;13.90;4.70;;;;;;;10.28;100.00;100680.50;5020385;28;20037;-85
2022/11/07 03:49:22;;;;;;;12.00;4.10;;;;;;;10.30;100.00;100677.56;5020575;28;20116;-85
2022/11/07 03:51:47;;;;;;;13.73;5.03;;;;;;;10.26;100.00;100674.44;5002162;28;20065;-86
2022/11/07 03:54:12;;;;;;;12.10;4.40;;;;;;;10.31;100.00;100685.47;5034494;28;20080;-84
2022/11/07 03:56:38;;;;;;;14.73;3.97;;;;;;;10.41;100.00;100676.09;5020735;28;20140;-86
2022/11/07 03:59:04;;;;;;;15.90;4.20;;;;;;;10.44;100.00;100679.22;5020745;28;20116;-85
2022/11/07 04:01:29;;;;;;;13.80;4.83;;;;;;;10.38;100.00;100680.06;5019409;28;20094;-83
2022/11/07 04:03:54;;;;;;;15.80;4.17;;;;;;;10.50;100.00;100677.53;5019783;28;20160;-82
2022/11/07 04:06:21;;;;;;;14.73;4.10;;;;;;;10.49;100.00;100683.16;5020582;28;20124;-83
2022/11/07 04:08:50;;;;;;;16.70;4.47;;;;;;;10.50;100.00;100682.94;5019569;28;20045;-86
2022/11/07 04:19:42;;;;;;;14.97;4.20;;;;;;;10.61;100.00;100668.72;5020006;28;20091;-84
2022/11/07 04:22:07;;;;;;;17.27;4.37;;;;;;;10.60;100.00;100669.75;5034489;28;20042;-84
2022/11/07 04:24:33;;;;;;;15.50;4.80;;;;;;;10.51;100.00;100654.78;5035790;28;20056;-85
2022/11/07 04:29:42;;;;;;;14.85;4.70;;;;;;;10.54;100.00;100669.78;5004356;28;20055;-84
2022/11/07 04:32:08;;;;;;;16.07;4.93;;;;;;;10.52;100.00;100686.25;5020520;28;20037;-83
2022/11/07 04:34:33;;;;;;;15.77;5.00;;;;;;;10.56;100.00;100689.38;5019775;28;20053;-83
2022/11/07 04:36:58;;;;;;;15.43;4.37;;;;;;;10.61;100.00;100667.91;5020027;28;20078;-81
2022/11/07 04:39:24;;;;;;;14.90;4.77;;;;;;;10.61;100.00;100679.53;5034529;28;20037;-84
2022/11/07 04:41:49;;;;;;;18.13;5.37;;;;;;;10.51;100.00;100679.16;5034343;28;20485;-84
2022/11/07 04:44:14;;;;;;;16.50;4.37;;;;;;;10.58;100.00;100681.84;5018627;28;20444;-83
2022/11/07 04:46:40;;;;;;;15.00;4.77;;;;;;;10.54;100.00;100673.34;5019377;28;20519;-85
2022/11/07 04:49:05;;;;;;;15.77;5.20;;;;;;;10.52;100.00;100685.44;5019506;28;20033;-85
2022/11/07 04:51:30;;;;;;;16.30;4.63;;;;;;;10.59;100.00;100681.66;5018702;28;20060;-84
2022/11/07 04:53:56;;;;;;;13.63;4.17;;;;;;;10.56;100.00;100686.66;5019940;28;20385;-85
2022/11/07 04:56:21;;;;;;;14.83;4.03;;;;;;;10.52;100.00;100682.72;5020509;28;20045;-83
2022/11/07 04:58:46;;;;;;;14.93;4.07;;;;;;;10.53;100.00;100684.41;5019676;28;20044;-83
2022/11/07 05:01:12;;;;;;;16.73;4.47;;;;;;;10.49;100.00;100675.03;5019102;28;20504;-86
2022/11/07 05:03:37;;;;;;;16.20;4.67;;;;;;;10.55;100.00;100685.84;5019609;28;20478;-85
2022/11/07 05:06:03;;;;;;;18.30;4.73;;;;;;;10.42;100.00;100685.91;5019375;28;20128;-84
2022/11/07 05:08:32;;;;;;;14.27;4.17;;;;;;;10.46;100.00;100696.06;5033317;28;20076;-84
2022/11/07 05:10:57;;;;;;;15.53;4.37;;;;;;;10.47;100.00;100699.59;5034604;28;20037;-82
2022/11/07 05:13:23;;;;;;;17.37;4.53;;;;;;;10.53;100.00;100698.75;5000546;28;20607;-82
2022/11/07 05:15:49;;;;;;;14.00;3.63;;;;;;;10.58;100.00;100698.94;5018840;28;20413;-82
2022/11/07 05:18:14;;;;;;;17.53;4.20;;;;;;;10.63;100.00;100703.72;5019730;28;20065;-83
2022/11/07 05:20:40;;;;;;;15.63;3.93;;;;;;;10.67;100.00;100693.28;5034212;28;20137;-85
2022/11/07 05:23:11;;;;;;;16.03;3.80;;;;;;;10.76;100.00;100709.06;5019430;28;20041;-83
2022/11/07 05:25:39;;;;;;;14.47;3.90;;;;;;;10.71;100.00;100706.16;5019349;28;20140;-84
2022/11/07 05:28:05;;;;;;;15.93;3.53;;;;;;;10.73;100.00;100705.94;5018427;28;20037;-82
2022/11/07 05:30:30;;;;;;;17.93;3.90;;;;;;;10.77;100.00;100707.19;5019555;28;20025;-82
2022/11/07 05:32:56;;;;;;;15.23;3.70;;;;;;;10.78;100.00;100698.88;5018823;28;20105;-84
2022/11/07 05:35:21;;;;;;;14.30;4.00;;;;;;;10.63;100.00;100692.88;5019206;28;20052;-84
2022/11/07 05:37:47;;;;;;;17.93;3.80;;;;;;;10.77;100.00;100705.31;5018460;28;20113;-82
2022/11/07 05:40:13;;;;;;;13.33;3.67;;;;;;;10.80;100.00;100712.19;5001087;28;20080;-83
2022/11/07 05:42:38;;;;;;;14.87;3.40;;;;;;;10.86;100.00;100714.03;5019470;28;20033;-81
2022/11/07 05:45:04;;;;;;;14.53;4.17;;;;;;;10.76;100.00;100714.50;5034308;28;20528;-83
2022/11/07 05:47:29;;;;;;;14.73;3.70;;;;;;;10.79;100.00;100714.06;5019118;28;20033;-85
2022/11/07 05:49:55;;;;;;;13.57;4.00;;;;;;;10.79;100.00;100713.22;5017929;28;20513;-82
2022/11/07 05:52:20;;;;;;;17.73;4.40;;;;;;;10.73;100.00;100712.22;5022295;28;20082;-83
2022/11/07 05:55:10;;;;;;;19.47;5.70;;;;;;;10.73;100.00;100714.09;5020955;28;20037;-83
2022/11/07 05:57:36;;;;;;;17.70;4.60;;;;;;;10.74;100.00;100704.91;5023237;28;20053;-85
2022/11/07 06:00:01;;;;;;;13.33;4.37;;;;;;;10.65;100.00;100704.34;5003785;28;20056;-84
2022/11/07 06:02:27;;;;;;;17.10;5.17;;;;;;;10.73;100.00;100705.94;5021135;28;20042;-87
2022/11/07 06:04:52;;;;;;;17.57;4.97;;;;;;;10.67;100.00;100707.66;5022085;28;20192;-83
2022/11/07 06:07:17;;;;;;;17.87;4.83;;;;;;;10.69;100.00;100712.84;5022281;28;20095;-83
2022/11/07 06:09:43;;;;;;;15.77;4.70;;;;;;;10.78;100.00;100708.84;5022858;28;20509;-83
2022/11/07 06:12:08;;;;;;;18.17;4.73;;;;;;;10.66;100.00;100707.88;5020001;28;20037;-86
2022/11/07 06:14:33;;;;;;;17.17;4.03;;;;;;;10.61;100.00;100690.38;5021947;28;20044;-83
2022/11/07 06:16:59;;;;;;;16.90;5.47;;;;;;;10.71;100.00;100705.34;5022806;28;20108;-84
2022/11/07 06:19:24;;;;;;;14.87;5.27;;;;;;;10.62;100.00;100694.75;5022267;28;20044;-82
2022/11/07 06:21:49;;;;;;;17.67;4.87;;;;;;;10.73;100.00;100703.25;5005585;28;20033;-83
2022/11/07 06:24:15;;;;;;;15.57;3.80;;;;;;;10.88;100.00;100705.66;5021622;28;20029;-82
2022/11/07 06:26:40;;;;;;;14.03;3.80;;;;;;;10.82;100.00;100710.06;5037731;28;20238;-85
2022/11/07 06:29:06;;;;;;;17.07;4.53;;;;;;;10.82;100.00;100696.53;5021219;28;20116;-82
2022/11/07 06:31:31;;;;;;;15.77;3.90;;;;;;;10.89;100.00;100708.19;5037129;28;20493;-83
2022/11/07 06:33:56;;;;;;;14.97;3.43;;;;;;;11.00;100.00;100711.22;5037273;28;20431;-82
2022/11/07 06:36:22;;;;;;;15.47;3.83;;;;;;;11.00;100.00;100717.47;5023056;28;20103;-82
2022/11/07 06:38:51;;;;;;;16.57;3.40;;;;;;;11.04;100.00;100723.31;5021282;28;20038;-84
2022/11/07 06:41:16;;;;;;;11.43;3.30;;;;;;;11.10;100.00;100725.16;5020587;28;20037;-83
2022/11/07 06:43:42;;;;;;;18.73;4.77;;;;;;;11.06;100.00;100726.66;5003882;28;20626;-84
2022/11/07 06:46:11;;;;;;;16.93;4.07;;;;;;;11.05;100.00;100722.25;5013394;28;20037;-82
2022/11/07 06:48:36;;;;;;;12.10;3.00;;;;;;;11.06;100.00;100710.38;5021259;28;20386;-83
2022/11/07 06:51:04;;;;;;;15.60;4.20;;;;;;;11.11;100.00;100719.50;5009723;28;20048;-84
2022/11/07 06:53:29;;;;;;;17.97;4.97;;;;;;;11.02;100.00;100728.13;5021057;28;20029;-84
2022/11/07 06:55:58;;;;;;;16.73;4.67;;;;;;;10.98;100.00;100725.84;5021546;28;20075;-85
2022/11/07 06:58:23;;;;;;;15.63;4.70;;;;;;;11.10;100.00;100725.97;5021236;28;20041;-84
2022/11/07 07:01:05;;;;;;;19.53;5.40;;;;;;;11.10;100.00;100736.81;5036877;28;20040;-82
2022/11/07 07:03:30;;;;;;;16.10;4.53;;;;;;;11.15;100.00;100725.31;5021442;28;20041;-85
2022/11/07 07:06:04;;;;;;;15.23;4.20;;;;;;;11.22;100.00;100744.25;5001667;28;20445;-84
2022/11/07 07:08:30;;;;;;;14.40;4.03;;;;;;;11.18;100.00;100746.59;5021385;28;20064;-84
2022/11/07 07:10:56;;;;;;;14.63;3.60;;;;;;;11.26;100.00;100748.19;5021758;28;20084;-84
2022/11/07 07:13:21;;;;;;;14.87;3.77;;;;;;;11.24;100.00;100753.84;5021272;28;20189;-82
2022/11/07 07:15:54;;;;;;;14.20;3.57;;;;;;;11.17;100.00;100753.06;5021191;28;21821;-85
2022/11/07 07:18:20;;;;;;;18.27;3.93;;;;;;;11.18;100.00;100738.44;5022438;28;20041;-82
2022/11/07 07:20:49;;;;;;;18.33;4.20;;;;;;;11.16;100.00;100759.53;5021007;28;20096;-82
2022/11/07 07:23:16;;;;;;;14.07;3.77;;;;;;;11.26;100.00;100750.91;5021065;28;20053;-82
2022/11/07 07:25:42;;;;;;;13.00;3.33;;;;;;;11.27;100.00;100761.56;5022033;28;20111;-83
2022/11/07 07:28:07;;;;;;;16.53;3.30;;;;;;;11.24;100.00;100767.41;5020051;28;20045;-84
2022/11/07 07:30:33;;;;;;;18.73;3.83;;;;;;;11.32;100.00;100766.31;5020481;28;20072;-86
2022/11/07 07:32:58;;;;;;;18.17;4.00;;;;;;;11.28;100.00;100767.81;5020670;28;20037;-82
2022/11/07 07:35:23;;;;;;;14.67;3.40;;;;;;;11.31;100.00;100765.50;5019727;28;20470;-85
2022/11/07 07:37:50;;;;;;;13.37;3.23;;;;;;;11.32;100.00;100771.75;5020178;28;20099;-85
2022/11/07 07:40:17;;;;;;;15.40;3.37;;;;;;;11.32;100.00;100775.28;5020634;28;20564;-83
2022/11/07 07:42:42;;;;;;;13.23;3.43;;;;;;;11.37;100.00;100776.50;5021251;28;20456;-84
2022/11/07 07:45:12;;;;;;;15.07;3.57;;;;;;;11.40;100.00;100771.47;5021019;28;20152;-85
2022/11/07 07:47:39;;;;;;;12.80;3.80;;;;;;;11.49;100.00;100772.88;5036885;28;20039;-84
2022/11/07 07:50:06;;;;;;;14.93;3.50;;;;;;;11.51;100.00;100769.13;5020827;28;20072;-83
2022/11/07 07:52:31;;;;;;;12.20;2.90;;;;;;;11.64;100.00;100777.13;5020773;28;20573;-85
2022/11/07 07:54:57;;;;;;;14.73;3.13;;;;;;;11.69;100.00;100785.44;5019457;28;20037;-83
2022/11/07 07:57:22;;;;;;;13.40;3.37;;;;;;;11.74;100.00;100771.25;5020758;28;20521;-83
2022/11/07 07:59:47;;;;;;;13.70;3.73;;;;;;;11.69;100.00;100781.91;5020472;28;20041;-81
2022/11/07 08:02:13;;;;;;;12.93;3.43;;;;;;;11.72;100.00;100770.63;5036355;28;20485;-83
2022/11/07 08:04:41;;;;;;;14.80;3.60;;;;;;;11.75;100.00;100792.72;5019126;28;20477;-82
2022/11/07 08:07:07;;;;;;;16.33;3.50;;;;;;;11.83;100.00;100795.16;5020928;28;20045;-85
2022/11/07 08:09:35;;;;;;;11.83;3.63;;;;;;;11.80;100.00;100792.06;5002690;28;20126;-86
2022/11/07 08:12:02;;;;;;;12.10;3.13;;;;;;;11.82;100.00;100796.22;5020103;28;20048;-82
2022/11/07 08:14:28;;;;;;;14.03;3.53;;;;;;;11.93;100.00;100800.09;5026853;28;20045;-84
2022/11/07 08:16:53;;;;;;;15.30;3.40;;;;;;;11.91;100.00;100798.66;5015130;28;20107;-84
2022/11/07 08:19:18;;;;;;;13.13;3.47;;;;;;;11.95;100.00;100798.03;5016229;28;20380;-85
2022/11/07 08:21:44;;;;;;;13.60;3.63;;;;;;;11.90;100.00;100800.53;4997201;28;20960;-82
2022/11/07 08:24:09;;;;;;;10.10;3.00;;;;;;;12.04;100.00;100795.84;5014370;28;20079;-79
2022/11/07 08:26:36;;;;;;;16.13;3.10;;;;;;;12.03;100.00;100809.66;5026901;28;20049;-83
2022/11/07 08:29:01;;;;;;;13.00;3.73;;;;;;;12.04;100.00;100797.75;5016282;28;20037;-80
2022/11/07 08:31:26;;;;;;;12.80;3.27;;;;;;;12.13;100.00;100780.09;5015316;28;20500;-81
2022/11/07 08:33:52;;;;;;;13.93;3.33;;;;;;;12.28;100.00;100810.47;5016332;28;20033;-79
2022/11/07 08:36:17;;;;;;;12.83;3.33;;;;;;;12.30;99.91;100815.66;5015720;28;20046;-81
2022/11/07 08:38:42;;;;;;;13.50;3.17;;;;;;;12.35;100.00;100813.13;5015649;28;20140;-81
2022/11/07 08:41:08;;;;;;;17.00;4.03;;;;;;;12.38;100.00;100822.72;5015040;28;20044;-80
2022/11/07 08:43:33;;;;;;;11.77;3.10;;;;;;;12.36;100.00;100812.03;5015861;28;20041;-82
2022/11/07 08:45:59;;;;;;;12.27;3.20;;;;;;;12.67;98.75;100829.28;5014351;28;20041;-79
2022/11/07 08:48:24;;;;;;;14.93;3.00;;;;;;;12.72;98.88;100825.91;5013642;28;20386;-80
2022/11/07 08:50:55;;;;;;;13.20;3.27;;;;;;;12.80;97.48;100803.84;5015153;28;20069;-80
2022/11/07 08:53:21;;;;;;;12.50;2.90;;;;;;;12.85;97.03;100836.59;4999184;28;20102;-79
2022/11/07 08:55:50;;;;;;;12.47;3.30;;;;;;;12.79;97.98;100840.25;5028117;28;22037;-81
2022/11/07 08:58:15;;;;;;;15.87;3.77;;;;;;;12.78;97.34;100844.84;5015912;28;20811;-81
2022/11/07 09:00:41;;;;;;;11.97;2.87;;;;;;;12.84;96.67;100849.38;5015721;28;20049;-79
2022/11/07 09:03:07;;;;;;;14.90;3.20;;;;;;;12.75;97.04;100849.91;5015914;28;20458;-82
2022/11/07 09:05:33;;;;;;;13.03;3.10;;;;;;;12.71;97.44;100854.13;5016855;28;20045;-79
2022/11/07 09:07:58;;;;;;;14.00;3.73;;;;;;;12.63;98.18;100858.81;5015821;28;20167;-80
2022/11/07 09:10:24;;;;;;;13.57;3.40;;;;;;;12.55;98.85;100853.69;5014461;28;20057;-79
2022/11/07 09:12:50;;;;;;;12.60;3.07;;;;;;;12.62;97.99;100857.16;5000059;28;20029;-79
2022/11/07 09:15:16;;;;;;;17.20;3.57;;;;;;;12.58;98.13;100866.81;5018370;28;20048;-77
2022/11/07 09:17:42;;;;;;;12.90;3.40;;;;;;;12.61;98.21;100865.53;5001649;28;20848;-79
2022/11/07 09:20:08;;;;;;;13.10;3.50;;;;;;;12.50;99.67;100859.78;5019200;28;20331;-84
2022/11/07 09:22:34;;;;;;;9.60;2.50;;;;;;;12.50;100.00;100865.22;5020192;28;20064;-81
2022/11/07 09:25:00;;;;;;;13.43;3.13;;;;;;;12.47;100.00;100875.69;5017414;28;20033;-81
2022/11/07 09:27:25;;;;;;;13.97;3.93;;;;;;;12.52;100.00;100856.00;5019420;28;20085;-82
2022/11/07 09:29:51;;;;;;;13.03;3.07;;;;;;;12.49;100.00;100868.16;5019517;28;20029;-81
2022/11/07 09:32:16;;;;;;;16.77;3.47;;;;;;;12.59;99.63;100875.78;5019050;28;20120;-80
2022/11/07 09:34:44;;;;;;;11.93;3.20;;;;;;;12.54;100.00;100887.34;5017397;28;20065;-86
2022/11/07 09:37:09;;;;;;;16.30;3.20;;;;;;;12.52;100.00;100886.72;5020216;28;20053;-81
2022/11/07 09:39:35;;;;;;;12.60;3.33;;;;;;;12.55;100.00;100872.72;4994514;28;20607;-83
2022/11/07 09:42:26;;;;;;;15.30;3.70;;;;;;;12.57;100.00;100876.00;5019458;28;20064;-82
2022/11/07 09:44:57;;;;;;;12.73;3.50;;;;;;;12.54;100.00;100887.34;5033595;28;20033;-81
2022/11/07 09:47:28;;;;;;;14.20;3.40;;;;;;;12.49;100.00;100877.13;5017450;28;20037;-84
2022/11/07 09:50:03;;;;;;;16.03;3.77;;;;;;;12.57;100.00;100886.06;5017647;28;20561;-82
2022/11/07 09:52:39;;;;;;;13.27;3.40;;;;;;;12.63;100.00;100891.44;5019004;28;20511;-82
2022/11/07 09:55:32;;;;;;;13.10;3.33;;;;;;;12.66;100.00;100901.00;5018580;28;20041;-84
2022/11/07 09:58:01;;;;;;;12.77;3.00;;;;;;;12.60;99.77;100888.34;5019878;28;20037;-82
2022/11/07 10:00:30;;;;;;;11.07;3.00;;;;;;;12.62;100.00;100883.50;5001476;28;20030;-82
2022/11/07 10:02:58;;;;;;;11.60;3.20;;;;;;;12.70;99.32;100885.94;5018947;28;20195;-81
2022/11/07 10:05:53;;;;;;;15.97;3.50;;;;;;;12.76;99.84;100895.91;4993706;28;20114;-81
2022/11/07 10:08:31;;;;;;;13.15;3.30;;;;;;;12.79;98.79;100862.00;5009231;28;20479;-82
2022/11/07 10:11:14;;;;;;;15.00;3.40;;;;;;;12.91;98.29;100900.16;5007034;28;20397;-82
2022/11/07 10:14:13;;;;;;;12.20;2.97;;;;;;;12.82;97.84;100886.84;4993205;28;20096;-82
2022/11/07 10:16:57;;;;;;;13.80;3.20;;;;;;;12.82;97.50;100891.44;5006389;28;20030;-81
2022/11/07 10:19:37;;;;;;;11.90;3.10;;;;;;;12.86;97.74;100870.91;5007657;28;20533;-81
2022/11/07 10:22:03;;;;;;;14.17;2.93;;;;;;;12.75;99.13;100902.38;5008215;28;20065;-81
2022/11/07 10:24:37;;;;;;;13.53;3.60;;;;;;;12.85;99.06;100896.41;5006063;28;20025;-81
2022/11/07 10:27:07;;;;;;;13.63;3.22;;;;;;;12.88;97.63;100885.13;5008896;28;20091;-82
2022/11/07 10:29:43;;;;;;;15.20;3.90;;;;;;;12.91;98.15;100903.69;4991170;28;20040;-84
2022/11/07 10:32:57;;;;;;;12.10;3.23;;;;;;;13.07;97.37;100904.97;5020046;28;20117;-81
2022/11/07 10:35:38;;;;;;;13.63;3.53;;;;;;;13.02;97.07;100910.25;4993333;28;20661;-82
2022/11/07 10:38:25;;;;;;;17.60;3.43;;;;;;;13.07;96.89;100904.13;4989221;28;20088;-82
2022/11/07 10:40:51;;;;;;;14.27;3.93;;;;;;;12.94;97.48;100903.22;5011823;28;20450;-81
2022/11/07 10:43:32;;;;;;;14.57;3.70;;;;;;;13.03;96.69;100911.09;5012729;28;20033;-81
2022/11/07 10:46:00;;;;;;;15.47;3.30;;;;;;;13.05;96.37;100919.88;5012726;28;20041;-83
2022/11/07 10:48:28;;;;;;;16.07;3.60;;;;;;;13.04;98.18;100923.63;4995011;28;20507;-81
2022/11/07 10:50:54;;;;;;;16.53;3.77;;;;;;;13.12;96.89;100924.19;5012614;28;20394;-82
2022/11/07 10:53:21;;;;;;;13.30;3.63;;;;;;;13.15;96.44;100928.31;5011792;28;20033;-84
2022/11/07 10:55:49;;;;;;;16.67;3.90;;;;;;;13.26;94.80;100922.13;5012350;28;20270;-81
2022/11/07 10:58:41;;;;;;;15.20;3.60;;;;;;;13.39;95.94;100923.06;5010238;28;20488;-81
2022/11/07 11:01:09;;;;;;;15.80;3.57;;;;;;;13.40;94.67;100927.44;5008852;28;20041;-82
2022/11/07 11:03:41;;;;;;;15.03;3.50;;;;;;;13.34;94.91;100923.69;5010335;28;20426;-83
2022/11/07 11:06:19;;;;;;;13.70;3.10;;;;;;;13.37;94.69;100922.44;5019486;28;20471;-82
2022/11/07 11:08:46;;;;;;;10.90;2.87;;;;;;;13.42;93.58;100920.72;5021297;28;20404;-82
2022/11/07 11:11:14;;;;;;;12.40;3.00;;;;;;;13.42;94.05;100922.59;5021766;28;21529;-81
2022/11/07 11:13:39;;;;;;;15.67;3.77;;;;;;;13.47;93.26;100922.75;5022524;28;20029;-83
2022/11/07 11:16:20;;;;;;;15.33;3.03;;;;;;;13.48;93.69;100908.06;5019107;28;20048;-81
2022/11/07 11:18:55;;;;;;;13.43;3.30;;;;;;;13.47;94.55;100917.28;5020189;28;21090;-82
2022/11/07 11:21:21;;;;;;;13.30;3.33;;;;;;;13.60;92.18;100906.22;5021434;28;20057;-83
2022/11/07 11:23:47;;;;;;;14.13;3.33;;;;;;;13.61;92.47;100913.34;5021643;28;20091;-82
2022/11/07 11:26:29;;;;;;;15.37;3.00;;;;;;;13.71;91.58;100910.06;5021311;28;20037;-84
2022/11/07 11:29:03;;;;;;;14.47;3.20;;;;;;;13.66;92.23;100905.28;5020316;28;20757;-84